Time;durP1;ratioP1;P1;durP2;ratioP2;P2;SDS_P1;SDS_P2;PMS_P1;PMS_P2;Temp;Humidity;BMP_temperature;BMP_pressure;BME280_temperature;BME280_humidity;BME280_pressure;Samples;Min_cycle;Max_cycle;Signal;HPM_P1;HPM_P2
2021/12/31 00:01:11;;;;;;;10.25;3.25;;;12.50;99.90;;;;;;5037449;28;20098;-72
2021/12/31 00:03:36;;;;;;;9.63;2.63;;;12.50;99.90;;;;;;5033570;28;20049;-70
2021/12/31 00:06:02;;;;;;;13.68;2.70;;;12.60;99.90;;;;;;5017847;28;20064;-71
2021/12/31 00:08:27;;;;;;;11.57;2.53;;;12.50;99.90;;;;;;5017695;28;20136;-71
2021/12/31 00:10:59;;;;;;;10.45;2.65;;;12.60;99.90;;;;;;5017408;28;20049;-70
2021/12/31 00:13:28;;;;;;;9.80;2.70;;;12.40;99.90;;;;;;5019325;28;20528;-70
2021/12/31 00:15:54;;;;;;;10.05;2.88;;;12.50;99.90;;;;;;5036608;28;20055;-72
2021/12/31 00:18:20;;;;;;;12.43;2.80;;;12.50;99.90;;;;;;5036471;28;20053;-73
2021/12/31 00:20:46;;;;;;;7.30;2.47;;;12.70;99.90;;;;;;5037363;28;20111;-72
2021/12/31 00:23:14;;;;;;;12.85;3.30;;;12.60;99.90;;;;;;5037418;28;20129;-72
2021/12/31 00:25:42;;;;;;;13.48;2.97;;;12.50;99.90;;;;;;5036957;28;20057;-70
2021/12/31 00:28:09;;;;;;;11.00;3.03;;;12.70;99.90;;;;;;5037418;28;20052;-72
2021/12/31 00:30:36;;;;;;;10.55;3.20;;;12.50;99.90;;;;;;5036466;28;20048;-71
2021/12/31 00:33:02;;;;;;;13.90;3.20;;;12.70;99.90;;;;;;5036167;28;20052;-74
2021/12/31 00:35:32;;;;;;;10.55;3.03;;;12.60;99.90;;;;;;5037186;28;20396;-73
2021/12/31 00:37:58;;;;;;;9.63;2.60;;;12.70;99.90;;;;;;5037079;28;20106;-71
2021/12/31 00:40:24;;;;;;;9.77;3.42;;;12.70;99.90;;;;;;5037047;28;20065;-74
2021/12/31 00:42:49;;;;;;;8.00;2.90;;;12.60;99.90;;;;;;5037372;28;20088;-71
2021/12/31 00:45:18;;;;;;;9.65;2.50;;;12.70;99.90;;;;;;5036011;28;20503;-70
2021/12/31 00:47:44;;;;;;;11.25;3.10;;;12.60;99.90;;;;;;5031155;28;20073;-71
2021/12/31 00:50:12;;;;;;;9.05;2.85;;;12.70;99.90;;;;;;5017375;28;20056;-72
2021/12/31 00:52:37;;;;;;;9.30;2.65;;;12.60;99.90;;;;;;5016886;28;20223;-74
2021/12/31 00:55:04;;;;;;;9.93;2.90;;;12.80;99.90;;;;;;5016924;28;20169;-71
2021/12/31 00:57:30;;;;;;;12.13;3.63;;;12.70;99.90;;;;;;5016711;28;20057;-71
2021/12/31 00:59:56;;;;;;;11.57;3.03;;;12.70;99.90;;;;;;5017793;28;20071;-71
2021/12/31 01:02:24;;;;;;;7.45;2.85;;;12.70;99.90;;;;;;5016346;28;20087;-71
2021/12/31 01:04:49;;;;;;;12.18;3.38;;;12.70;99.90;;;;;;5016541;28;20504;-71
2021/12/31 01:07:15;;;;;;;10.82;3.40;;;12.70;99.90;;;;;;5016538;28;20057;-73
2021/12/31 01:09:44;;;;;;;10.48;3.63;;;12.80;99.90;;;;;;5017350;28;20049;-71
2021/12/31 01:12:11;;;;;;;11.13;2.85;;;12.30;99.90;;;;;;5016672;28;20053;-71
2021/12/31 01:14:41;;;;;;;12.48;2.92;;;12.80;99.90;;;;;;5027991;28;20080;-70
2021/12/31 01:17:11;;;;;;;10.13;2.70;;;12.80;99.90;;;;;;5041913;28;20037;-72
2021/12/31 01:19:45;;;;;;;13.75;3.20;;;12.80;99.90;;;;;;5017328;28;20042;-71
2021/12/31 01:22:13;;;;;;;11.70;2.90;;;12.60;99.90;;;;;;5016397;28;20107;-70
2021/12/31 01:24:39;;;;;;;8.02;2.65;;;12.80;99.90;;;;;;5029016;28;20072;-70
2021/12/31 01:27:05;;;;;;;7.18;2.53;;;12.80;99.90;;;;;;5019731;28;20405;-71
2021/12/31 01:29:30;;;;;;;5.18;2.25;;;12.80;99.90;;;;;;5035522;28;20401;-73
2021/12/31 01:31:56;;;;;;;9.60;2.97;;;12.70;99.90;;;;;;5035255;28;20349;-71
2021/12/31 01:34:24;;;;;;;7.60;2.90;;;12.90;99.90;;;;;;5019429;28;20048;-70
2021/12/31 01:36:53;;;;;;;10.30;3.08;;;12.60;99.90;;;;;;5035559;28;20152;-72
2021/12/31 01:39:18;;;;;;;14.18;3.33;;;12.80;99.90;;;;;;5023810;28;20427;-70
2021/12/31 01:42:13;;;;;;;10.75;4.22;;;12.80;99.90;;;;;;5048901;28;20441;-71
2021/12/31 01:44:42;;;;;;;8.07;2.60;;;12.70;99.90;;;;;;5014603;28;20152;-71
2021/12/31 01:47:15;;;;;;;8.23;2.70;;;12.80;99.90;;;;;;5013277;28;20119;-71
2021/12/31 01:49:53;;;;;;;9.15;3.25;;;12.80;99.90;;;;;;5034204;28;20049;-71
2021/12/31 01:52:20;;;;;;;7.22;2.40;;;12.80;99.90;;;;;;5018704;28;20041;-73
2021/12/31 01:54:46;;;;;;;9.23;2.80;;;12.80;99.90;;;;;;5032269;28;20049;-70
2021/12/31 01:57:13;;;;;;;10.43;3.22;;;12.80;99.90;;;;;;5051878;28;20052;-71
2021/12/31 01:59:40;;;;;;;7.25;2.75;;;12.70;99.90;;;;;;5051952;28;20062;-72
2021/12/31 02:02:07;;;;;;;7.55;3.00;;;12.70;99.90;;;;;;5034269;28;20051;-71
2021/12/31 02:04:34;;;;;;;13.30;3.58;;;12.30;99.90;;;;;;5035125;28;20390;-70
2021/12/31 02:06:59;;;;;;;11.68;2.92;;;12.80;99.90;;;;;;5034969;28;20102;-71
2021/12/31 02:09:25;;;;;;;11.60;3.38;;;12.80;99.90;;;;;;5035526;28;20049;-71
2021/12/31 02:11:53;;;;;;;10.13;3.78;;;12.80;99.90;;;;;;5035104;28;20044;-73
2021/12/31 02:14:24;;;;;;;7.95;3.15;;;13.30;99.90;;;;;;5018685;28;20044;-72
2021/12/31 02:16:51;;;;;;;10.65;3.20;;;12.80;99.90;;;;;;5034366;28;20099;-73
2021/12/31 02:19:26;;;;;;;7.47;2.83;;;12.90;99.90;;;;;;5018887;28;20041;-72
2021/12/31 02:21:52;;;;;;;8.00;3.03;;;13.00;99.90;;;;;;5034732;28;20448;-71
2021/12/31 02:24:19;;;;;;;10.25;2.97;;;12.90;99.90;;;;;;5034241;28;20061;-71
2021/12/31 02:26:44;;;;;;;8.65;3.20;;;12.90;99.90;;;;;;5035325;28;20084;-71
2021/12/31 02:29:10;;;;;;;8.55;3.80;;;12.90;99.90;;;;;;5033837;28;20083;-71
2021/12/31 02:31:35;;;;;;;11.10;3.80;;;12.90;99.90;;;;;;5034701;28;20044;-71
2021/12/31 02:34:01;;;;;;;8.40;3.85;;;12.80;99.90;;;;;;5027070;28;20037;-70
2021/12/31 02:36:27;;;;;;;5.65;3.88;;;13.10;99.90;;;;;;5049987;28;20037;-72
2021/12/31 02:38:52;;;;;;;9.48;4.18;;;12.80;99.90;;;;;;5019269;28;20085;-72
2021/12/31 02:41:18;;;;;;;9.30;4.00;;;12.80;99.90;;;;;;5047302;28;20050;-71
2021/12/31 02:43:43;;;;;;;8.55;3.78;;;12.80;99.90;;;;;;5018875;28;20430;-72
2021/12/31 02:46:09;;;;;;;5.03;3.80;;;12.80;99.90;;;;;;5034415;28;20057;-72
2021/12/31 02:48:35;;;;;;;9.70;4.30;;;12.90;99.90;;;;;;5033430;28;20049;-72
2021/12/31 02:51:01;;;;;;;9.15;4.88;;;12.80;99.90;;;;;;5034575;28;20086;-72
2021/12/31 02:53:48;;;;;;;9.70;4.70;;;12.60;99.90;;;;;;5032329;28;20520;-72
2021/12/31 02:56:14;;;;;;;7.97;4.82;;;12.80;99.90;;;;;;5039925;28;20045;-71
2021/12/31 02:58:41;;;;;;;9.07;4.97;;;12.80;99.90;;;;;;5033861;28;20465;-70
2021/12/31 03:01:08;;;;;;;9.68;5.20;;;12.80;99.90;;;;;;5034034;28;20547;-72
2021/12/31 03:03:36;;;;;;;7.97;4.82;;;12.80;99.90;;;;;;5034713;28;20468;-70
2021/12/31 03:06:02;;;;;;;11.35;5.20;;;12.70;99.90;;;;;;5034244;28;20444;-72
2021/12/31 03:08:30;;;;;;;9.40;5.95;;;12.90;99.90;;;;;;5030364;28;20053;-71
2021/12/31 03:10:58;;;;;;;10.23;5.30;;;12.80;99.90;;;;;;5024552;28;20103;-71
2021/12/31 03:13:24;;;;;;;8.85;6.05;;;12.90;99.90;;;;;;5030912;28;20107;-73
2021/12/31 03:15:52;;;;;;;8.68;5.75;;;12.90;99.90;;;;;;5030497;28;20064;-73
2021/12/31 03:18:19;;;;;;;8.13;6.18;;;12.90;99.90;;;;;;5030961;28;20089;-73
2021/12/31 03:20:57;;;;;;;10.93;6.65;;;12.90;99.90;;;;;;5030658;28;20091;-73
2021/12/31 03:23:27;;;;;;;9.63;5.97;;;13.00;99.90;;;;;;5013723;28;20050;-71
2021/12/31 03:25:53;;;;;;;6.82;5.80;;;13.00;99.90;;;;;;5030836;28;20168;-71
2021/12/31 03:28:20;;;;;;;9.70;5.88;;;13.10;99.90;;;;;;5030787;28;20128;-71
2021/12/31 03:30:49;;;;;;;8.57;5.85;;;13.10;99.90;;;;;;5030141;28;20461;-73
2021/12/31 03:33:15;;;;;;;10.05;6.63;;;13.00;99.90;;;;;;5030312;28;20045;-73
2021/12/31 03:35:41;;;;;;;9.95;5.65;;;12.90;99.90;;;;;;5030904;28;20058;-73
2021/12/31 03:38:07;;;;;;;8.23;5.30;;;13.00;99.90;;;;;;5014513;28;20045;-71
2021/12/31 03:40:33;;;;;;;9.10;5.55;;;13.00;99.90;;;;;;5031234;28;20430;-72
2021/12/31 03:42:58;;;;;;;11.15;5.38;;;12.90;99.90;;;;;;5030716;28;20195;-71
2021/12/31 03:45:24;;;;;;;8.00;5.72;;;13.20;99.90;;;;;;5030673;28;20100;-71
2021/12/31 03:47:50;;;;;;;9.27;5.00;;;13.00;99.90;;;;;;5032283;28;20041;-73
2021/12/31 03:50:15;;;;;;;7.47;5.20;;;13.20;99.90;;;;;;5017826;28;20052;-72
2021/12/31 03:52:41;;;;;;;6.43;5.10;;;13.10;99.90;;;;;;5034126;28;20041;-71
2021/12/31 03:55:08;;;;;;;8.90;4.80;;;13.20;99.90;;;;;;5036984;28;20065;-74
2021/12/31 03:57:34;;;;;;;6.45;5.15;;;13.10;99.90;;;;;;5037461;28;20132;-70
2021/12/31 04:00:00;;;;;;;10.25;5.53;;;13.10;99.90;;;;;;5036898;28;20052;-72
2021/12/31 04:02:26;;;;;;;9.07;5.45;;;13.00;99.90;;;;;;5036647;28;20413;-71
2021/12/31 04:04:52;;;;;;;7.25;5.10;;;13.10;99.90;;;;;;5037891;28;20049;-70
2021/12/31 04:07:17;;;;;;;6.90;5.10;;;13.10;99.90;;;;;;5054084;28;20091;-72
2021/12/31 04:09:43;;;;;;;7.47;5.65;;;13.10;99.90;;;;;;5054111;28;20063;-69
2021/12/31 04:12:09;;;;;;;7.97;5.20;;;13.00;99.90;;;;;;5037558;28;20506;-71
2021/12/31 04:14:34;;;;;;;7.65;5.75;;;12.90;99.90;;;;;;5037162;28;20060;-71
2021/12/31 04:17:00;;;;;;;6.50;5.68;;;13.00;99.90;;;;;;5036939;28;20440;-70
2021/12/31 04:19:25;;;;;;;6.90;5.45;;;13.10;99.90;;;;;;5037706;28;20084;-70
2021/12/31 04:21:51;;;;;;;7.57;5.75;;;13.00;99.90;;;;;;5037615;28;20428;-72
2021/12/31 04:24:30;;;;;;;10.13;5.82;;;13.00;99.90;;;;;;5036775;28;20120;-70
2021/12/31 04:26:56;;;;;;;6.72;5.68;;;13.10;99.90;;;;;;5036721;28;20123;-71
2021/12/31 04:29:22;;;;;;;8.43;6.00;;;13.00;99.90;;;;;;5036539;28;20137;-71
2021/12/31 04:31:47;;;;;;;11.15;6.38;;;13.00;99.90;;;;;;5036584;28;20056;-72
2021/12/31 04:34:13;;;;;;;8.30;5.60;;;13.00;99.90;;;;;;5020263;28;20063;-71
2021/12/31 04:36:39;;;;;;;9.93;5.88;;;13.00;99.90;;;;;;5037034;28;20052;-74
2021/12/31 04:39:05;;;;;;;9.45;5.65;;;13.00;99.90;;;;;;5037068;28;20060;-71
2021/12/31 04:41:30;;;;;;;9.85;5.50;;;13.00;99.90;;;;;;5036525;28;20040;-70
2021/12/31 04:43:56;;;;;;;5.93;5.20;;;13.00;99.90;;;;;;5053912;28;20445;-71
2021/12/31 04:46:22;;;;;;;7.07;5.57;;;13.00;99.90;;;;;;5036417;28;20049;-73
2021/12/31 04:48:47;;;;;;;7.88;5.15;;;13.00;99.90;;;;;;5036760;28;20051;-71
2021/12/31 04:51:13;;;;;;;7.72;5.35;;;13.00;99.90;;;;;;5036586;28;20053;-71
2021/12/31 04:53:38;;;;;;;5.68;4.50;;;13.00;99.90;;;;;;5036210;28;20134;-71
2021/12/31 04:56:04;;;;;;;6.93;4.43;;;13.00;99.90;;;;;;5036497;28;20080;-71
2021/12/31 04:58:29;;;;;;;7.38;4.45;;;12.90;99.90;;;;;;5036495;28;20045;-71
2021/12/31 05:00:55;;;;;;;5.85;4.30;;;13.10;99.90;;;;;;5035895;28;20052;-70
2021/12/31 05:03:20;;;;;;;7.22;4.32;;;13.00;99.90;;;;;;5037347;28;20120;-72
2021/12/31 05:05:46;;;;;;;6.43;4.22;;;13.10;99.90;;;;;;5035514;28;20049;-72
2021/12/31 05:08:12;;;;;;;8.07;4.07;;;13.10;99.90;;;;;;5036053;28;20060;-71
2021/12/31 05:10:37;;;;;;;8.05;3.70;;;13.00;99.90;;;;;;5036516;28;20605;-71
2021/12/31 05:13:05;;;;;;;5.57;3.65;;;13.00;99.90;;;;;;5019410;28;20052;-73
2021/12/31 05:15:37;;;;;;;6.13;3.38;;;13.00;99.90;;;;;;5036590;28;20190;-70
2021/12/31 05:18:03;;;;;;;6.47;3.20;;;13.00;99.90;;;;;;5034750;28;20129;-71
2021/12/31 05:20:29;;;;;;;7.03;3.65;;;13.90;99.90;;;;;;5036089;28;20092;-71
2021/12/31 05:22:57;;;;;;;6.45;3.15;;;13.10;99.90;;;;;;5036030;28;20041;-71
2021/12/31 05:25:23;;;;;;;5.38;3.15;;;13.10;99.90;;;;;;5035717;28;20049;-69
2021/12/31 05:27:49;;;;;;;7.68;3.03;;;13.20;99.90;;;;;;5035550;28;20056;-70
2021/12/31 05:30:15;;;;;;;5.90;3.25;;;13.10;99.90;;;;;;5053271;28;20052;-71
2021/12/31 05:32:40;;;;;;;4.57;2.90;;;13.00;99.90;;;;;;5034601;28;20385;-69
2021/12/31 05:35:07;;;;;;;6.57;3.08;;;13.10;99.90;;;;;;5035986;28;20132;-71
2021/12/31 05:37:32;;;;;;;4.88;2.97;;;13.00;99.90;;;;;;5035608;28;20063;-71
2021/12/31 05:39:58;;;;;;;5.05;2.80;;;13.10;99.90;;;;;;5035503;28;20045;-69
2021/12/31 05:42:23;;;;;;;8.23;3.00;;;12.80;99.90;;;;;;5035007;28;20081;-71
2021/12/31 05:44:49;;;;;;;6.82;2.80;;;13.00;99.90;;;;;;5036030;28;20049;-71
2021/12/31 05:47:15;;;;;;;4.47;2.58;;;13.10;99.90;;;;;;5033905;28;20044;-72
2021/12/31 05:49:41;;;;;;;3.70;2.38;;;13.10;99.90;;;;;;5035969;28;20135;-71
2021/12/31 05:52:07;;;;;;;6.38;2.80;;;13.10;99.90;;;;;;5043257;28;20059;-71
2021/12/31 05:54:33;;;;;;;5.68;2.60;;;13.00;99.90;;;;;;5035167;28;20048;-69
2021/12/31 05:56:58;;;;;;;4.68;2.40;;;12.90;99.90;;;;;;5018767;28;20041;-71
2021/12/31 05:59:24;;;;;;;3.13;2.22;;;13.10;99.90;;;;;;5035171;28;20116;-71
2021/12/31 06:01:49;;;;;;;4.80;2.60;;;13.10;99.90;;;;;;5018190;28;20136;-70
2021/12/31 06:04:16;;;;;;;3.95;2.30;;;12.70;99.90;;;;;;5035538;28;20057;-72
2021/12/31 06:06:42;;;;;;;6.47;2.40;;;13.00;99.90;;;;;;5035122;28;20061;-70
2021/12/31 06:09:08;;;;;;;3.42;2.40;;;13.00;99.90;;;;;;5035753;28;20135;-71
2021/12/31 06:11:33;;;;;;;4.47;2.40;;;13.00;99.90;;;;;;5035140;28;20044;-71
2021/12/31 06:14:01;;;;;;;3.60;2.30;;;12.90;99.90;;;;;;5035089;28;20405;-71
2021/12/31 06:16:37;;;;;;;2.78;2.00;;;12.80;99.90;;;;;;5033241;28;20497;-70
2021/12/31 06:19:05;;;;;;;3.67;2.38;;;12.80;99.90;;;;;;5034859;28;20052;-71
2021/12/31 06:21:33;;;;;;;3.75;2.10;;;12.80;99.90;;;;;;5035017;28;20396;-70
2021/12/31 06:23:59;;;;;;;3.85;2.08;;;12.70;99.90;;;;;;5035320;28;20041;-71
2021/12/31 06:26:24;;;;;;;4.75;2.58;;;12.90;99.90;;;;;;5035138;28;20049;-69
2021/12/31 06:28:50;;;;;;;3.15;2.17;;;12.80;99.90;;;;;;5035219;28;20075;-72
2021/12/31 06:31:16;;;;;;;4.82;2.45;;;12.90;99.90;;;;;;5033691;28;20385;-72
2021/12/31 06:33:41;;;;;;;3.25;1.80;;;12.80;99.90;;;;;;5018651;28;20095;-70
2021/12/31 06:36:07;;;;;;;4.68;2.17;;;12.80;99.90;;;;;;5034876;28;20053;-71
2021/12/31 06:38:32;;;;;;;3.47;2.13;;;13.00;99.90;;;;;;5034533;28;20060;-71
2021/12/31 06:40:58;;;;;;;5.72;2.50;;;13.00;99.90;;;;;;5034393;28;20045;-72
2021/12/31 06:43:24;;;;;;;5.63;2.38;;;12.90;99.90;;;;;;5050636;28;20048;-71
2021/12/31 06:45:49;;;;;;;6.18;2.13;;;12.90;99.90;;;;;;5033682;28;20060;-72
2021/12/31 06:48:15;;;;;;;5.40;2.30;;;12.80;99.90;;;;;;5037574;28;20057;-72
2021/12/31 06:50:40;;;;;;;5.03;2.50;;;12.80;99.90;;;;;;5034163;28;20102;-72
2021/12/31 06:53:06;;;;;;;4.05;2.10;;;12.80;99.90;;;;;;5033073;28;20089;-72
2021/12/31 06:55:32;;;;;;;5.18;2.20;;;12.70;99.90;;;;;;5034677;28;20053;-70
2021/12/31 06:57:58;;;;;;;5.03;2.65;;;12.60;99.90;;;;;;5033841;28;20044;-70
2021/12/31 07:00:24;;;;;;;5.13;2.28;;;12.70;99.90;;;;;;5034072;28;20432;-70
2021/12/31 07:02:50;;;;;;;5.38;2.28;;;12.70;99.90;;;;;;5033338;28;20045;-71
2021/12/31 07:05:15;;;;;;;4.78;2.20;;;12.70;99.90;;;;;;5049907;28;20132;-71
2021/12/31 07:07:41;;;;;;;4.80;2.60;;;12.70;99.90;;;;;;5033653;28;20057;-72
2021/12/31 07:10:15;;;;;;;5.07;2.65;;;12.50;99.90;;;;;;5017568;28;20052;-71
2021/12/31 07:12:40;;;;;;;3.50;2.00;;;12.60;99.90;;;;;;5034033;28;20060;-70
2021/12/31 07:15:06;;;;;;;3.08;2.33;;;12.50;99.90;;;;;;5034473;28;20053;-72
2021/12/31 07:17:32;;;;;;;5.45;2.30;;;12.50;99.90;;;;;;5033086;28;20049;-71
2021/12/31 07:19:58;;;;;;;4.15;2.20;;;12.70;99.90;;;;;;5033784;28;20470;-72
2021/12/31 07:22:23;;;;;;;3.70;2.30;;;12.50;99.90;;;;;;5051060;28;20519;-73
2021/12/31 07:24:49;;;;;;;3.85;2.33;;;12.50;99.90;;;;;;5034532;28;20172;-71
2021/12/31 07:27:15;;;;;;;2.88;2.33;;;12.50;99.90;;;;;;5032259;28;20132;-71
2021/12/31 07:29:40;;;;;;;4.57;2.50;;;12.20;99.90;;;;;;5038122;28;20056;-70
2021/12/31 07:32:06;;;;;;;4.32;2.60;;;12.40;99.90;;;;;;5030880;28;21070;-71
2021/12/31 07:34:34;;;;;;;5.03;2.58;;;12.30;99.90;;;;;;5018479;28;20049;-71
2021/12/31 07:36:59;;;;;;;6.93;2.42;;;12.30;99.90;;;;;;5018248;28;20054;-71
2021/12/31 07:39:31;;;;;;;4.38;2.55;;;12.40;99.90;;;;;;5035990;28;20068;-70
2021/12/31 07:41:56;;;;;;;4.07;2.40;;;12.40;99.90;;;;;;5037765;28;20132;-73
2021/12/31 07:44:22;;;;;;;4.90;2.53;;;12.40;99.90;;;;;;5037436;28;20136;-71
2021/12/31 07:46:47;;;;;;;3.72;2.45;;;12.40;99.90;;;;;;5037724;28;20182;-72
2021/12/31 07:49:19;;;;;;;4.32;2.70;;;12.40;99.90;;;;;;5037198;28;20504;-72
2021/12/31 07:51:44;;;;;;;4.20;2.55;;;12.40;99.90;;;;;;5037282;28;20037;-72
2021/12/31 07:54:10;;;;;;;5.25;2.42;;;12.40;99.90;;;;;;5037443;28;20063;-72
2021/12/31 07:56:39;;;;;;;4.35;2.30;;;12.30;99.90;;;;;;5020615;28;20501;-71
2021/12/31 07:59:05;;;;;;;3.58;2.13;;;12.30;99.90;;;;;;5037659;28;20501;-70
2021/12/31 08:01:30;;;;;;;5.03;2.55;;;12.40;99.90;;;;;;5030106;28;20040;-73
2021/12/31 08:03:57;;;;;;;5.10;2.65;;;12.30;99.90;;;;;;5057510;28;20098;-71
2021/12/31 08:06:23;;;;;;;4.90;2.65;;;12.30;99.90;;;;;;5040768;28;20131;-72
2021/12/31 08:08:48;;;;;;;5.38;2.40;;;13.20;99.90;;;;;;5037881;28;20080;-69
2021/12/31 08:11:14;;;;;;;3.65;2.28;;;12.30;99.90;;;;;;5036295;28;20094;-74
2021/12/31 08:13:39;;;;;;;3.80;2.42;;;12.40;99.90;;;;;;5036390;28;20033;-73
2021/12/31 08:16:05;;;;;;;6.00;2.65;;;12.30;99.90;;;;;;5036238;28;20052;-72
2021/12/31 08:18:31;;;;;;;4.50;2.30;;;12.40;99.90;;;;;;5037101;28;20041;-71
2021/12/31 08:20:56;;;;;;;4.25;2.40;;;12.40;99.90;;;;;;5020771;28;20049;-73
2021/12/31 08:23:22;;;;;;;2.97;2.40;;;12.50;99.90;;;;;;5037316;28;20076;-71
2021/12/31 08:25:47;;;;;;;4.40;2.55;;;12.60;99.90;;;;;;5036914;28;20087;-71
2021/12/31 08:28:15;;;;;;;6.55;2.63;;;12.60;99.90;;;;;;5037770;28;20045;-71
2021/12/31 08:30:41;;;;;;;4.85;2.15;;;12.70;99.90;;;;;;5036286;28;20041;-72
2021/12/31 08:33:07;;;;;;;3.75;2.28;;;12.70;99.90;;;;;;5033382;28;20432;-72
2021/12/31 08:35:33;;;;;;;4.55;2.35;;;12.80;99.90;;;;;;5018034;28;20045;-72
2021/12/31 08:37:58;;;;;;;3.88;2.13;;;12.80;99.90;;;;;;5016892;28;20135;-69
2021/12/31 08:40:25;;;;;;;4.32;2.30;;;12.80;99.90;;;;;;5016480;28;20512;-71
2021/12/31 08:42:51;;;;;;;3.85;2.15;;;12.90;99.90;;;;;;5016792;28;20087;-71
2021/12/31 08:45:17;;;;;;;4.72;2.17;;;12.90;99.90;;;;;;5017134;28;20045;-70
2021/12/31 08:47:43;;;;;;;3.17;2.17;;;12.80;99.90;;;;;;5032046;28;20053;-73
2021/12/31 08:50:09;;;;;;;4.93;2.53;;;12.80;99.90;;;;;;5037676;28;20045;-71
2021/12/31 08:52:38;;;;;;;2.08;1.90;;;12.90;99.90;;;;;;5020634;28;20450;-72
2021/12/31 08:55:05;;;;;;;3.20;2.35;;;12.90;99.90;;;;;;5036883;28;20106;-71
2021/12/31 08:57:31;;;;;;;4.47;2.30;;;12.90;99.90;;;;;;5036520;28;20045;-70
2021/12/31 09:00:00;;;;;;;4.07;2.30;;;12.90;99.90;;;;;;5036737;28;20108;-70
2021/12/31 09:02:26;;;;;;;3.88;2.13;;;12.90;99.90;;;;;;5035576;28;20456;-71
2021/12/31 09:04:51;;;;;;;3.67;2.20;;;12.90;99.90;;;;;;5036213;28;20132;-72
2021/12/31 09:07:17;;;;;;;6.13;2.92;;;12.80;99.90;;;;;;5032265;28;20053;-72
2021/12/31 09:09:42;;;;;;;4.43;2.55;;;12.80;99.90;;;;;;5016572;28;20048;-72
2021/12/31 09:12:08;;;;;;;4.55;2.85;;;12.80;99.90;;;;;;5016254;28;20091;-71
2021/12/31 09:14:34;;;;;;;4.13;2.42;;;12.80;99.90;;;;;;5021890;28;20045;-72
2021/12/31 09:17:00;;;;;;;4.47;2.60;;;12.90;99.90;;;;;;5034174;28;20120;-71
2021/12/31 09:19:26;;;;;;;4.68;2.30;;;12.80;99.90;;;;;;5028777;28;20049;-70
2021/12/31 09:21:51;;;;;;;3.15;2.38;;;12.80;99.90;;;;;;5016133;28;20581;-71
2021/12/31 09:24:17;;;;;;;5.43;4.05;;;12.80;99.90;;;;;;5031991;28;20094;-72
2021/12/31 09:26:42;;;;;;;5.70;2.97;;;12.80;99.90;;;;;;5033028;28;20040;-70
2021/12/31 09:29:08;;;;;;;4.60;2.40;;;12.80;99.90;;;;;;5052612;28;20041;-71
2021/12/31 09:31:33;;;;;;;4.63;2.63;;;12.80;99.90;;;;;;5034666;28;20155;-71
2021/12/31 09:33:59;;;;;;;4.75;2.53;;;12.80;99.90;;;;;;5033584;28;20136;-72
2021/12/31 09:36:25;;;;;;;3.60;2.40;;;12.80;99.90;;;;;;5016511;28;20042;-72
2021/12/31 09:38:51;;;;;;;4.25;2.67;;;12.80;99.90;;;;;;5016279;28;20382;-73
2021/12/31 09:41:16;;;;;;;5.20;2.80;;;12.80;99.90;;;;;;5017352;28;20048;-71
2021/12/31 09:43:48;;;;;;;5.40;2.50;;;12.80;99.90;;;;;;5049390;28;20140;-72
2021/12/31 09:46:15;;;;;;;3.78;2.05;;;12.80;99.90;;;;;;5016033;28;20038;-72
2021/12/31 09:48:42;;;;;;;6.93;2.80;;;12.80;99.90;;;;;;5048502;28;20041;-72
2021/12/31 09:51:08;;;;;;;5.05;2.58;;;12.80;99.90;;;;;;5033561;28;20102;-71
2021/12/31 09:53:34;;;;;;;4.10;2.83;;;12.90;99.90;;;;;;5017381;28;20469;-70
2021/12/31 09:55:59;;;;;;;3.95;2.35;;;12.90;99.90;;;;;;5035570;28;20045;-71
2021/12/31 09:58:26;;;;;;;5.15;2.70;;;12.90;99.90;;;;;;5035745;28;20041;-72
2021/12/31 10:00:57;;;;;;;6.20;2.33;;;12.80;99.90;;;;;;5034392;28;20048;-71
2021/12/31 10:03:31;;;;;;;5.55;2.40;;;12.80;99.90;;;;;;5044509;28;20057;-71
2021/12/31 10:06:05;;;;;;;5.90;2.70;;;12.80;99.90;;;;;;5033469;28;20409;-70
2021/12/31 10:08:41;;;;;;;5.93;2.65;;;12.80;99.90;;;;;;5014285;28;20092;-70
2021/12/31 10:11:14;;;;;;;4.88;2.40;;;12.80;99.90;;;;;;4999312;28;20432;-72
2021/12/31 10:13:53;;;;;;;4.25;2.50;;;12.80;99.90;;;;;;5015414;28;20485;-69
2021/12/31 10:16:27;;;;;;;3.72;2.83;;;12.80;99.90;;;;;;5014954;28;20081;-69
2021/12/31 10:19:07;;;;;;;4.95;2.90;;;13.00;99.90;;;;;;5015573;28;20053;-69
2021/12/31 10:21:49;;;;;;;5.15;2.88;;;12.80;99.90;;;;;;5014941;28;20076;-69
2021/12/31 10:24:35;;;;;;;5.28;2.58;;;12.80;99.90;;;;;;4998915;28;20049;-69
2021/12/31 10:27:10;;;;;;;4.07;2.72;;;12.80;99.90;;;;;;5014411;28;20081;-69
2021/12/31 10:30:14;;;;;;;4.35;2.95;;;12.80;99.90;;;;;;5015415;28;20068;-70
2021/12/31 10:32:45;;;;;;;9.75;5.85;;;12.80;99.90;;;;;;5030386;28;20096;-70
2021/12/31 10:35:35;;;;;;;56.50;51.00;;;12.80;99.90;;;;;;5031473;28;20070;-72
2021/12/31 10:38:04;;;;;;;31.90;26.48;;;12.80;99.90;;;;;;4998201;28;20042;-68
2021/12/31 10:40:43;;;;;;;5.88;3.80;;;12.70;99.90;;;;;;5015385;28;20128;-71
2021/12/31 10:43:12;;;;;;;6.05;3.30;;;12.70;99.90;;;;;;4998208;28;20453;-72
2021/12/31 10:45:39;;;;;;;6.55;3.42;;;12.70;99.90;;;;;;5009661;28;20085;-70
2021/12/31 10:48:09;;;;;;;6.50;4.10;;;12.70;99.90;;;;;;5011621;28;20057;-71
2021/12/31 10:50:37;;;;;;;6.15;3.67;;;12.70;99.90;;;;;;4995261;28;20045;-67
2021/12/31 10:53:23;;;;;;;3.83;3.25;;;12.70;99.90;;;;;;5013108;28;20057;-70
2021/12/31 10:55:49;;;;;;;5.85;3.40;;;12.80;99.90;;;;;;5011432;28;20473;-69
2021/12/31 10:58:34;;;;;;;4.65;3.03;;;12.70;99.90;;;;;;5013415;28;20076;-73
2021/12/31 11:01:05;;;;;;;5.90;3.50;;;12.70;99.90;;;;;;5031114;28;20108;-72
2021/12/31 11:03:33;;;;;;;7.87;3.47;;;12.70;99.90;;;;;;5017166;28;20089;-71
2021/12/31 11:06:00;;;;;;;7.43;3.50;;;12.70;99.90;;;;;;5036420;28;20500;-72
2021/12/31 11:11:28;;;;;;;5.97;3.60;;;12.70;99.90;;;;;;5018038;28;20409;-72
2021/12/31 11:13:55;;;;;;;4.57;3.20;;;12.60;99.90;;;;;;4999094;28;20049;-71
2021/12/31 11:16:24;;;;;;;6.80;3.25;;;12.60;99.90;;;;;;4998845;28;20125;-71
2021/12/31 11:18:50;;;;;;;5.93;3.35;;;12.50;99.90;;;;;;4999008;28;20049;-70
2021/12/31 11:21:16;;;;;;;5.60;3.80;;;12.50;99.90;;;;;;5014078;28;20458;-72
2021/12/31 11:23:43;;;;;;;7.43;3.83;;;12.50;99.90;;;;;;5016763;28;20081;-72
2021/12/31 11:26:13;;;;;;;7.32;3.80;;;12.40;99.90;;;;;;5015822;28;20037;-71
2021/12/31 11:28:41;;;;;;;8.48;4.03;;;12.40;99.90;;;;;;5002103;28;20054;-71
2021/12/31 11:31:19;;;;;;;6.53;4.22;;;12.40;99.90;;;;;;5016797;28;20490;-71
2021/12/31 11:33:46;;;;;;;5.35;3.92;;;12.40;99.90;;;;;;5018131;28;20088;-70
2021/12/31 11:36:33;;;;;;;5.50;4.00;;;12.40;99.90;;;;;;5018166;28;20053;-71
2021/12/31 11:39:17;;;;;;;5.88;3.75;;;12.30;99.90;;;;;;5018042;28;20049;-70
2021/12/31 11:41:51;;;;;;;7.35;4.32;;;12.30;99.90;;;;;;5017455;28;20045;-70
2021/12/31 11:44:23;;;;;;;5.78;4.13;;;12.30;99.90;;;;;;5001738;28;20132;-71
2021/12/31 11:46:49;;;;;;;7.65;4.00;;;12.30;99.90;;;;;;5016698;28;20052;-70
2021/12/31 11:49:25;;;;;;;5.55;3.63;;;12.30;99.90;;;;;;5016234;28;20087;-71
2021/12/31 11:52:08;;;;;;;5.70;4.18;;;12.30;99.90;;;;;;5018614;28;20409;-71
2021/12/31 11:54:38;;;;;;;5.70;4.05;;;12.30;99.90;;;;;;5018270;28;20049;-71
2021/12/31 11:57:17;;;;;;;5.90;4.00;;;12.30;99.90;;;;;;5016718;28;20096;-70
2021/12/31 11:59:50;;;;;;;7.05;3.90;;;12.30;99.90;;;;;;5015652;28;20103;-70
2021/12/31 12:02:18;;;;;;;7.53;4.13;;;12.30;99.90;;;;;;5015091;28;20120;-69
2021/12/31 12:04:59;;;;;;;6.85;4.43;;;12.30;99.90;;;;;;5003936;28;20055;-72
2021/12/31 12:07:38;;;;;;;7.55;5.20;;;12.40;99.90;;;;;;5034127;28;20056;-70
2021/12/31 12:10:07;;;;;;;8.10;5.65;;;12.40;99.90;;;;;;5018114;28;20061;-70
2021/12/31 12:12:35;;;;;;;7.57;4.90;;;12.40;99.90;;;;;;5017658;28;20096;-68
2021/12/31 12:15:14;;;;;;;10.50;4.78;;;12.40;99.90;;;;;;5017131;28;20089;-71
2021/12/31 12:17:43;;;;;;;6.75;5.00;;;12.40;99.90;;;;;;5016870;28;20516;-72
2021/12/31 12:20:18;;;;;;;6.88;5.18;;;12.30;99.90;;;;;;5010048;28;20425;-71
2021/12/31 12:22:50;;;;;;;9.80;5.32;;;12.30;99.90;;;;;;5025471;28;20052;-71
2021/12/31 12:25:26;;;;;;;;;;;12.30;99.90;;;;;;5022675;28;20551;-70
2021/12/31 12:27:56;;;;;;;8.95;5.63;;;12.30;99.90;;;;;;5040185;28;19956;-71
2021/12/31 12:30:23;;;;;;;8.80;5.50;;;12.20;99.90;;;;;;5025646;28;20052;-73
2021/12/31 12:33:04;;;;;;;10.93;6.68;;;12.10;99.90;;;;;;5020815;28;20100;-69
2021/12/31 12:35:32;;;;;;;13.52;6.63;;;12.00;99.90;;;;;;5016918;28;20060;-70
2021/12/31 12:37:58;;;;;;;12.38;6.53;;;12.00;99.90;;;;;;5016474;28;20497;-71
2021/12/31 12:40:47;;;;;;;11.52;6.20;;;11.90;99.90;;;;;;5016974;28;20452;-72
2021/12/31 12:43:14;;;;;;;12.73;7.03;;;11.90;99.90;;;;;;5023571;28;20162;-70
2021/12/31 12:45:55;;;;;;;12.25;7.35;;;11.80;99.90;;;;;;5025537;28;20447;-70
2021/12/31 12:48:50;;;;;;;13.32;7.10;;;11.70;99.90;;;;;;5003106;28;20057;-70
2021/12/31 12:51:24;;;;;;;14.60;12.98;;;11.70;99.90;;;;;;5016809;28;20114;-70
2021/12/31 12:53:51;;;;;;;11.38;7.85;;;11.70;99.90;;;;;;5016592;28;20515;-68